Time,TemperatureF,DewpointF,PressureIn,WindDirection,WindDirectionDegrees,WindSpeedMPH,WindSpeedGustMPH,Humidity,HourlyPrecipIn,Conditions,Clouds,dailyrainin,SoftwareType,DateUTC
2014-04-16 00:13:00,74.0,73.0,29.91,WSW,241,3.0,6.0,95,-99.99,,,-99.99,,2014-04-16 04:13:00,
2014-04-16 00:24:00,74.0,73.0,29.91,WSW,241,3.0,6.0,95,-99.99,,,-99.99,,2014-04-16 04:24:00,
2014-04-16 00:54:00,74.0,73.0,29.92,SSW,207,7.0,46.0,95,-99.99,,,-99.99,,2014-04-16 04:54:00,
2014-04-16 01:13:00,74.0,73.0,29.92,SSW,201,20.0,50.0,95,-99.99,,,-99.99,,2014-04-16 05:13:00,
2014-04-16 01:22:00,74.0,73.0,29.92,SSW,201,20.0,50.0,95,-99.99,,,-99.99,,2014-04-16 05:22:00,
2014-04-16 01:53:00,73.0,72.0,29.91,SSW,196,4.0,6.0,96,-99.99,,,-99.99,,2014-04-16 05:53:00,
2014-04-16 02:12:00,73.0,72.0,29.92,SSW,198,5.0,6.0,97,-99.99,,,-99.99,,2014-04-16 06:12:00,
2014-04-16 02:22:00,73.0,72.0,29.92,SSW,198,5.0,6.0,97,-99.99,,,-99.99,,2014-04-16 06:22:00,
2014-04-16 02:52:00,73.0,73.0,29.91,SSW,209,4.0,7.0,98,-99.99,,,-99.99,,2014-04-16 06:52:00,
2014-04-16 03:12:00,73.0,72.0,29.91,West,272,6.0,12.0,98,-99.99,,,-99.99,,2014-04-16 07:12:00,
2014-04-16 03:22:00,73.0,72.0,29.91,West,272,6.0,12.0,98,-99.99,,,-99.99,,2014-04-16 07:22:00,
2014-04-16 03:52:00,71.0,70.0,29.91,NW,326,4.0,7.0,96,-99.99,,,-99.99,,2014-04-16 07:52:00,
2014-04-16 04:12:00,71.0,70.0,29.92,NW,323,5.0,9.0,96,-99.99,,,-99.99,,2014-04-16 08:12:00,
2014-04-16 04:22:00,71.0,70.0,29.92,NW,323,5.0,9.0,96,-99.99,,,-99.99,,2014-04-16 08:22:00,
2014-04-16 04:32:00,71.0,70.0,29.92,NW,323,5.0,9.0,96,-99.99,,,-99.99,,2014-04-16 08:32:00,
2014-04-16 04:52:00,71.0,70.0,29.91,NNW,337,5.0,9.0,96,-99.99,,,-99.99,,2014-04-16 08:52:00,
2014-04-16 05:12:00,70.0,69.0,29.92,NW,323,5.0,8.0,97,-99.99,,,-99.99,,2014-04-16 09:12:00,
2014-04-16 05:22:00,70.0,69.0,29.92,NW,323,5.0,8.0,97,-99.99,,,-99.99,,2014-04-16 09:22:00,
2014-04-16 05:54:00,70.0,69.0,29.92,NNW,341,6.0,8.0,97,-99.99,,,-99.99,,2014-04-16 09:54:00,
2014-04-16 06:12:00,70.0,69.0,29.93,NNW,329,6.0,10.0,97,-99.99,,,-99.99,,2014-04-16 10:12:00,
2014-04-16 06:24:00,70.0,69.0,29.93,NNW,329,6.0,10.0,97,-99.99,,,-99.99,,2014-04-16 10:24:00,
2014-04-16 06:53:00,69.0,68.0,29.94,SE,129,4.0,8.0,97,-99.99,,,-99.99,,2014-04-16 10:53:00,
2014-04-16 07:12:00,69.0,68.0,29.95,SW,222,4.0,10.0,97,-99.99,,,-99.99,,2014-04-16 11:12:00,
2014-04-16 07:22:00,69.0,68.0,29.95,SW,222,4.0,10.0,97,-99.99,,,-99.99,,2014-04-16 11:22:00,
2014-04-16 07:53:00,69.0,68.0,29.96,SE,132,4.0,6.0,97,-99.99,,,-99.99,,2014-04-16 11:53:00,
2014-04-16 08:12:00,69.0,68.0,29.98,NE,41,5.0,9.0,97,-99.99,,,-99.99,,2014-04-16 12:12:00,
2014-04-16 08:22:00,69.0,68.0,29.98,NE,41,5.0,9.0,97,-99.99,,,-99.99,,2014-04-16 12:22:00,
2014-04-16 08:52:00,69.0,67.0,29.99,NNE,30,10.0,18.0,94,-99.99,,,-99.99,,2014-04-16 12:52:00,
2014-04-16 09:02:00,69.0,67.0,29.99,NNE,30,10.0,18.0,94,-99.99,,,-99.99,,2014-04-16 13:02:00,
2014-04-16 09:12:00,69.0,67.0,29.99,NNE,30,10.0,18.0,94,-99.99,,,-99.99,,2014-04-16 13:12:00,
2014-04-16 09:52:00,71.0,67.0,29.99,NE,35,10.0,16.0,85,-99.99,,,-99.99,,2014-04-16 13:52:00,
2014-04-16 10:11:00,72.0,66.0,30.01,NE,56,13.0,19.0,81,-99.99,,,-99.99,,2014-04-16 14:11:00,
2014-04-16 10:22:00,72.0,66.0,30.01,NE,56,13.0,19.0,81,-99.99,,,-99.99,,2014-04-16 14:22:00,
2014-04-16 10:53:00,71.0,65.0,30.03,ESE,106,13.0,19.0,80,-99.99,,,-99.99,,2014-04-16 14:53:00,
2014-04-16 11:12:00,71.0,65.0,30.04,East,92,12.0,17.0,79,-99.99,,,-99.99,,2014-04-16 15:12:00,
2014-04-16 11:22:00,71.0,65.0,30.04,East,92,12.0,17.0,79,-99.99,,,-99.99,,2014-04-16 15:22:00,
2014-04-16 11:54:00,74.0,65.0,30.05,NE,34,10.0,16.0,74,-99.99,,,-99.99,,2014-04-16 15:54:00,
2014-04-16 12:13:00,75.0,66.0,30.06,NNE,33,10.0,15.0,72,-99.99,,,-99.99,,2014-04-16 16:13:00,
2014-04-16 12:24:00,75.0,66.0,30.06,NNE,33,10.0,15.0,72,-99.99,,,-99.99,,2014-04-16 16:24:00,
2014-04-16 12:54:00,79.0,68.0,30.05,NE,51,10.0,16.0,68,-99.99,,,-99.99,,2014-04-16 16:54:00,
2014-04-16 13:13:00,79.0,68.0,30.05,NE,56,10.0,17.0,68,-99.99,,,-99.99,,2014-04-16 17:13:00,
2014-04-16 13:22:00,79.0,68.0,30.05,NE,56,10.0,17.0,68,-99.99,,,-99.99,,2014-04-16 17:22:00,
2014-04-16 13:53:00,79.0,69.0,30.04,NE,42,12.0,16.0,68,-99.99,,,-99.99,,2014-04-16 17:53:00,